sensor_id;sensor_type;location;lat;lon;timestamp;P1;durP1;ratioP1;P2;durP2;ratioP2
64469;SDS011;50854;48.538;14.352;2022-09-06T00:00:35;97.70;;;10.10;;
64469;SDS011;50854;48.538;14.352;2022-09-06T00:01:36;123.72;;;10.02;;
64469;SDS011;50854;48.538;14.352;2022-09-06T00:02:37;158.65;;;10.35;;
64469;SDS011;50854;48.538;14.352;2022-09-06T00:03:38;336.33;;;12.70;;
64469;SDS011;50854;48.538;14.352;2022-09-06T00:04:39;164.25;;;10.40;;
64469;SDS011;50854;48.538;14.352;2022-09-06T00:05:39;188.57;;;10.13;;
64469;SDS011;50854;48.538;14.352;2022-09-06T00:06:40;174.20;;;10.05;;
64469;SDS011;50854;48.538;14.352;2022-09-06T00:07:41;156.70;;;10.88;;
64469;SDS011;50854;48.538;14.352;2022-09-06T00:08:42;143.43;;;11.37;;
64469;SDS011;50854;48.538;14.352;2022-09-06T00:09:43;220.07;;;11.90;;
64469;SDS011;50854;48.538;14.352;2022-09-06T00:10:43;37.83;;;9.57;;
64469;SDS011;50854;48.538;14.352;2022-09-06T00:11:44;75.47;;;8.47;;
64469;SDS011;50854;48.538;14.352;2022-09-06T00:12:44;98.00;;;9.80;;
64469;SDS011;50854;48.538;14.352;2022-09-06T00:13:46;123.32;;;9.02;;
64469;SDS011;50854;48.538;14.352;2022-09-06T00:14:46;103.78;;;9.75;;
64469;SDS011;50854;48.538;14.352;2022-09-06T00:15:47;194.37;;;10.63;;
64469;SDS011;50854;48.538;14.352;2022-09-06T00:16:47;377.23;;;13.37;;
64469;SDS011;50854;48.538;14.352;2022-09-06T00:17:48;120.10;;;10.00;;
64469;SDS011;50854;48.538;14.352;2022-09-06T00:18:51;106.77;;;9.37;;
64469;SDS011;50854;48.538;14.352;2022-09-06T00:19:52;271.17;;;12.43;;
64469;SDS011;50854;48.538;14.352;2022-09-06T00:20:52;83.40;;;7.73;;
64469;SDS011;50854;48.538;14.352;2022-09-06T00:21:53;101.73;;;9.70;;
64469;SDS011;50854;48.538;14.352;2022-09-06T00:22:57;29.30;;;7.57;;
64469;SDS011;50854;48.538;14.352;2022-09-06T00:24:02;305.88;;;10.88;;
64469;SDS011;50854;48.538;14.352;2022-09-06T00:25:03;180.80;;;9.55;;
64469;SDS011;50854;48.538;14.352;2022-09-06T00:26:05;162.65;;;8.68;;
64469;SDS011;50854;48.538;14.352;2022-09-06T00:27:06;55.00;;;7.63;;
64469;SDS011;50854;48.538;14.352;2022-09-06T00:28:07;35.15;;;7.75;;
64469;SDS011;50854;48.538;14.352;2022-09-06T00:29:08;20.57;;;6.90;;
64469;SDS011;50854;48.538;14.352;2022-09-06T00:30:08;10.03;;;7.53;;
64469;SDS011;50854;48.538;14.352;2022-09-06T00:31:10;29.35;;;6.85;;
64469;SDS011;50854;48.538;14.352;2022-09-06T00:32:13;21.05;;;6.63;;
64469;SDS011;50854;48.538;14.352;2022-09-06T00:33:13;41.40;;;7.60;;
64469;SDS011;50854;48.538;14.352;2022-09-06T00:34:13;7.07;;;6.37;;
64469;SDS011;50854;48.538;14.352;2022-09-06T00:35:14;20.93;;;7.83;;
64469;SDS011;50854;48.538;14.352;2022-09-06T00:36:15;74.28;;;8.13;;
64469;SDS011;50854;48.538;14.352;2022-09-06T00:37:16;53.53;;;7.63;;
64469;SDS011;50854;48.538;14.352;2022-09-06T00:38:17;14.13;;;6.20;;
64469;SDS011;50854;48.538;14.352;2022-09-06T00:39:17;21.07;;;7.10;;
64469;SDS011;50854;48.538;14.352;2022-09-06T00:40:18;25.00;;;6.82;;
64469;SDS011;50854;48.538;14.352;2022-09-06T00:41:18;29.63;;;7.07;;
64469;SDS011;50854;48.538;14.352;2022-09-06T00:42:19;26.52;;;7.05;;
64469;SDS011;50854;48.538;14.352;2022-09-06T00:43:19;65.65;;;7.25;;
64469;SDS011;50854;48.538;14.352;2022-09-06T00:44:20;85.25;;;8.15;;
64469;SDS011;50854;48.538;14.352;2022-09-06T00:45:21;53.28;;;7.72;;
64469;SDS011;50854;48.538;14.352;2022-09-06T00:46:24;42.97;;;7.65;;
64469;SDS011;50854;48.538;14.352;2022-09-06T00:47:27;55.30;;;7.72;;
64469;SDS011;50854;48.538;14.352;2022-09-06T00:48:28;13.75;;;7.28;;
64469;SDS011;50854;48.538;14.352;2022-09-06T00:49:40;11.10;;;6.88;;
64469;SDS011;50854;48.538;14.352;2022-09-06T00:50:45;9.05;;;7.60;;
64469;SDS011;50854;48.538;14.352;2022-09-06T00:51:50;8.25;;;7.35;;
64469;SDS011;50854;48.538;14.352;2022-09-06T00:52:52;9.35;;;7.13;;
64469;SDS011;50854;48.538;14.352;2022-09-06T00:53:53;8.35;;;7.53;;
64469;SDS011;50854;48.538;14.352;2022-09-06T00:54:54;8.63;;;6.85;;
64469;SDS011;50854;48.538;14.352;2022-09-06T00:55:55;8.95;;;6.35;;
64469;SDS011;50854;48.538;14.352;2022-09-06T00:56:56;8.25;;;5.93;;
64469;SDS011;50854;48.538;14.352;2022-09-06T00:57:57;6.22;;;5.63;;
64469;SDS011;50854;48.538;14.352;2022-09-06T00:58:58;9.52;;;6.13;;
64469;SDS011;50854;48.538;14.352;2022-09-06T00:59:59;6.25;;;5.65;;
64469;SDS011;50854;48.538;14.352;2022-09-06T01:01:03;7.65;;;6.32;;
64469;SDS011;50854;48.538;14.352;2022-09-06T01:02:04;7.70;;;6.38;;
64469;SDS011;50854;48.538;14.352;2022-09-06T01:03:04;14.63;;;6.78;;
64469;SDS011;50854;48.538;14.352;2022-09-06T01:04:06;7.95;;;6.38;;
64469;SDS011;50854;48.538;14.352;2022-09-06T01:05:07;6.50;;;5.90;;
64469;SDS011;50854;48.538;14.352;2022-09-06T01:07:22;7.05;;;5.63;;
64469;SDS011;50854;48.538;14.352;2022-09-06T01:13:36;7.75;;;6.28;;
64469;SDS011;50854;48.538;14.352;2022-09-06T01:15:06;8.82;;;6.85;;
64469;SDS011;50854;48.538;14.352;2022-09-06T01:17:36;7.03;;;6.35;;
64469;SDS011;50854;48.538;14.352;2022-09-06T01:24:07;20.25;;;7.13;;
64469;SDS011;50854;48.538;14.352;2022-09-06T01:25:33;9.23;;;6.90;;
64469;SDS011;50854;48.538;14.352;2022-09-06T01:30:31;10.73;;;7.03;;
64469;SDS011;50854;48.538;14.352;2022-09-06T01:31:47;22.08;;;7.20;;
64469;SDS011;50854;48.538;14.352;2022-09-06T01:36:12;16.73;;;8.18;;
64469;SDS011;50854;48.538;14.352;2022-09-06T01:37:16;11.35;;;7.57;;
64469;SDS011;50854;48.538;14.352;2022-09-06T01:38:21;21.20;;;7.70;;
64469;SDS011;50854;48.538;14.352;2022-09-06T01:39:28;12.88;;;7.53;;
64469;SDS011;50854;48.538;14.352;2022-09-06T01:40:31;15.73;;;7.20;;
64469;SDS011;50854;48.538;14.352;2022-09-06T01:41:35;9.57;;;7.13;;
64469;SDS011;50854;48.538;14.352;2022-09-06T01:42:35;9.20;;;7.10;;
64469;SDS011;50854;48.538;14.352;2022-09-06T01:43:38;14.93;;;7.18;;
64469;SDS011;50854;48.538;14.352;2022-09-06T01:45:59;25.50;;;6.78;;
64469;SDS011;50854;48.538;14.352;2022-09-06T01:47:20;16.58;;;6.32;;
